Time;durP1;ratioP1;P1;durP2;ratioP2;P2;SDS_P1;SDS_P2;PMS_P1;PMS_P2;Temp;Humidity;BMP_temperature;BMP_pressure;BME280_temperature;BME280_humidity;BME280_pressure;Samples;Min_cycle;Max_cycle;Signal;HPM_P1;HPM_P2
2022/04/01 00:00:28;;;;;;;22.03;4.37;;;;;;;;;;5114275;28;20451;-70
2022/04/01 00:02:56;;;;;;;28.80;4.43;;;;;;;;;;5113903;28;20456;-70
2022/04/01 00:05:23;;;;;;;28.90;5.00;;;;;;;;;;5113593;28;20968;-70
2022/04/01 00:07:53;;;;;;;27.40;5.27;;;;;;;;;;5113834;28;20966;-70
2022/04/01 00:10:21;;;;;;;24.53;6.27;;;;;;;;;;5113918;28;20453;-70
2022/04/01 00:12:48;;;;;;;22.33;5.10;;;;;;;;;;5113797;28;20456;-70
2022/04/01 00:15:16;;;;;;;36.00;6.90;;;;;;;;;;5113493;28;20958;-70
2022/04/01 00:17:46;;;;;;;23.23;5.47;;;;;;;;;;5112857;28;20449;-70
2022/04/01 00:20:14;;;;;;;28.20;4.63;;;;;;;;;;5114166;27;20500;-69
2022/04/01 00:22:42;;;;;;;32.97;5.57;;;;;;;;;;5113578;28;20895;-70
2022/04/01 00:25:09;;;;;;;40.70;7.10;;;;;;;;;;5113790;28;20440;-70
2022/04/01 00:27:37;;;;;;;24.40;6.53;;;;;;;;;;5113465;28;20830;-70
2022/04/01 00:30:05;;;;;;;21.00;5.60;;;;;;;;;;5113516;28;20528;-70
2022/04/01 00:32:32;;;;;;;33.17;5.87;;;;;;;;;;5113292;28;20453;-70
2022/04/01 00:35:03;;;;;;;27.90;4.90;;;;;;;;;;5113657;28;20449;-70
2022/04/01 00:37:30;;;;;;;23.90;5.23;;;;;;;;;;5113343;28;20996;-70
2022/04/01 00:39:57;;;;;;;34.93;5.80;;;;;;;;;;5113092;28;20461;-69
2022/04/01 00:42:25;;;;;;;34.00;6.03;;;;;;;;;;5113276;28;20828;-70
2022/04/01 00:44:53;;;;;;;30.17;6.10;;;;;;;;;;5113022;28;20451;-70
2022/04/01 00:47:20;;;;;;;26.70;6.03;;;;;;;;;;5112969;28;20453;-69
2022/04/01 00:49:48;;;;;;;29.53;6.33;;;;;;;;;;5113782;28;20879;-69
2022/04/01 00:52:19;;;;;;;31.43;6.10;;;;;;;;;;5112977;28;20453;-69
2022/04/01 00:54:46;;;;;;;36.60;6.40;;;;;;;;;;5112922;28;21060;-69
2022/04/01 00:57:15;;;;;;;34.03;6.37;;;;;;;;;;5112665;28;20484;-70
2022/04/01 00:59:43;;;;;;;28.13;6.53;;;;;;;;;;5113074;28;20536;-69
2022/04/01 01:02:10;;;;;;;28.93;5.53;;;;;;;;;;5113088;28;20453;-70
2022/04/01 01:04:38;;;;;;;29.10;4.93;;;;;;;;;;5113130;28;20449;-69
2022/04/01 01:07:06;;;;;;;29.13;5.70;;;;;;;;;;5112851;28;20528;-70
2022/04/01 01:09:36;;;;;;;30.03;5.80;;;;;;;;;;5112656;28;20452;-69
2022/04/01 01:12:06;;;;;;;24.83;5.47;;;;;;;;;;5112460;28;20984;-70
2022/04/01 01:14:35;;;;;;;32.23;6.17;;;;;;;;;;5112775;28;20442;-70
2022/04/01 01:17:03;;;;;;;30.13;6.03;;;;;;;;;;5112779;28;20538;-69
2022/04/01 01:19:31;;;;;;;31.43;4.93;;;;;;;;;;5092855;28;20954;-69
2022/04/01 01:21:59;;;;;;;32.77;5.83;;;;;;;;;;5092933;28;20442;-69
2022/04/01 01:24:32;;;;;;;32.37;7.70;;;;;;;;;;5092872;28;20446;-70
2022/04/01 01:27:01;;;;;;;24.17;5.37;;;;;;;;;;5092899;28;20450;-70
2022/04/01 01:29:29;;;;;;;25.37;5.27;;;;;;;;;;5092665;28;20478;-70
2022/04/01 01:31:57;;;;;;;29.10;5.90;;;;;;;;;;5092995;28;20535;-69
2022/04/01 01:34:25;;;;;;;21.83;5.40;;;;;;;;;;5092854;28;20446;-70
2022/04/01 01:36:53;;;;;;;28.30;6.20;;;;;;;;;;5092544;28;20576;-69
2022/04/01 01:39:21;;;;;;;38.60;7.13;;;;;;;;;;5092539;28;20442;-70
2022/04/01 01:41:50;;;;;;;24.13;5.10;;;;;;;;;;5092548;28;20457;-69
2022/04/01 01:44:19;;;;;;;29.93;4.50;;;;;;;;;;5106931;28;20487;-69
2022/04/01 01:46:46;;;;;;;29.63;5.73;;;;;;;;;;5112404;28;20445;-70
2022/04/01 01:49:14;;;;;;;36.70;7.70;;;;;;;;;;5092097;28;20478;-70
2022/04/01 01:54:45;;;;;;;27.80;5.30;;;;;;;;;;5092612;28;20425;-70
2022/04/01 01:57:15;;;;;;;35.57;6.20;;;;;;;;;;5092082;28;20932;-70
2022/04/01 01:59:44;;;;;;;40.73;5.70;;;;;;;;;;5092485;28;20446;-70
2022/04/01 02:02:12;;;;;;;34.83;5.77;;;;;;;;;;5092273;28;20445;-70
2022/04/01 02:04:40;;;;;;;26.07;4.67;;;;;;;;;;5092569;28;20442;-70
2022/04/01 02:07:08;;;;;;;30.87;5.87;;;;;;;;;;5092009;28;20977;-70
2022/04/01 02:09:36;;;;;;;25.87;5.20;;;;;;;;;;5092379;28;20446;-69
2022/04/01 02:12:04;;;;;;;28.10;7.67;;;;;;;;;;5092074;28;21025;-70
2022/04/01 02:14:34;;;;;;;29.33;6.10;;;;;;;;;;5092230;28;20525;-70
2022/04/01 02:17:02;;;;;;;27.50;4.60;;;;;;;;;;5092401;28;20477;-70
2022/04/01 02:19:31;;;;;;;31.47;5.83;;;;;;;;;;5092327;28;20439;-69
2022/04/01 02:21:58;;;;;;;25.80;5.70;;;;;;;;;;5092094;28;20950;-70
2022/04/01 02:24:26;;;;;;;28.87;5.80;;;;;;;;;;5092046;28;20511;-70
2022/04/01 02:26:53;;;;;;;31.30;6.07;;;;;;;;;;5092072;28;20465;-70
2022/04/01 02:29:22;;;;;;;31.20;6.20;;;;;;;;;;5092187;28;20522;-69
2022/04/01 02:31:52;;;;;;;19.83;4.63;;;;;;;;;;5092376;28;20438;-70
2022/04/01 02:34:19;;;;;;;24.43;5.80;;;;;;;;;;5092261;28;20446;-70
2022/04/01 02:36:47;;;;;;;29.17;5.63;;;;;;;;;;5085088;28;20482;-70
2022/04/01 02:39:14;;;;;;;35.60;7.10;;;;;;;;;;5091799;28;20443;-70
2022/04/01 02:41:42;;;;;;;21.93;5.40;;;;;;;;;;5093019;28;20470;-69
2022/04/01 02:44:09;;;;;;;28.67;6.80;;;;;;;;;;5096037;28;20453;-69
2022/04/01 02:46:37;;;;;;;28.03;6.40;;;;;;;;;;5096275;28;20834;-70
2022/04/01 02:49:07;;;;;;;24.90;5.90;;;;;;;;;;5095721;28;20481;-70
2022/04/01 02:51:37;;;;;;;33.37;5.47;;;;;;;;;;5096124;28;20446;-70
2022/04/01 02:54:05;;;;;;;34.00;5.50;;;;;;;;;;5095750;28;20441;-69
2022/04/01 02:56:33;;;;;;;32.47;5.73;;;;;;;;;;5095933;28;20485;-69
2022/04/01 02:59:01;;;;;;;32.07;5.63;;;;;;;;;;5095665;28;20446;-70
2022/04/01 03:01:28;;;;;;;32.60;6.90;;;;;;;;;;5095609;28;20442;-70
2022/04/01 03:03:56;;;;;;;26.63;6.17;;;;;;;;;;5115209;28;20456;-70
2022/04/01 03:06:25;;;;;;;30.53;5.73;;;;;;;;;;5115108;28;20506;-69
2022/04/01 03:08:53;;;;;;;35.17;5.80;;;;;;;;;;5115212;28;20445;-69
2022/04/01 03:11:20;;;;;;;32.60;6.00;;;;;;;;;;5115148;28;20527;-70
2022/04/01 03:13:48;;;;;;;27.80;5.73;;;;;;;;;;5114861;28;20941;-70
2022/04/01 03:16:15;;;;;;;39.33;5.40;;;;;;;;;;5115177;28;20441;-69
2022/04/01 03:18:43;;;;;;;22.67;5.33;;;;;;;;;;5114985;28;20445;-70
2022/04/01 03:21:10;;;;;;;35.33;5.37;;;;;;;;;;5114453;28;20453;-69
2022/04/01 03:23:40;;;;;;;35.43;8.10;;;;;;;;;;5114965;28;20438;-70
2022/04/01 03:26:09;;;;;;;31.57;6.17;;;;;;;;;;5114857;28;20937;-70
2022/04/01 03:28:36;;;;;;;31.70;6.30;;;;;;;;;;5115314;28;21018;-69
2022/04/01 03:31:04;;;;;;;37.17;5.40;;;;;;;;;;5114309;28;20448;-70
2022/04/01 03:33:33;;;;;;;35.83;6.00;;;;;;;;;;5114501;28;20520;-70
2022/04/01 03:36:00;;;;;;;26.57;6.33;;;;;;;;;;5114725;28;20537;-70
2022/04/01 03:38:28;;;;;;;39.97;6.60;;;;;;;;;;5114340;28;20477;-69
2022/04/01 03:40:57;;;;;;;29.93;6.37;;;;;;;;;;5114612;28;20939;-70
2022/04/01 03:43:25;;;;;;;37.53;7.03;;;;;;;;;;5114185;28;20448;-70
2022/04/01 03:45:54;;;;;;;35.23;6.13;;;;;;;;;;5114345;28;20461;-70
2022/04/01 03:48:35;;;;;;;35.70;5.87;;;;;;;;;;5114217;28;20810;-69
2022/04/01 03:51:04;;;;;;;30.73;6.90;;;;;;;;;;5114781;28;20453;-70
2022/04/01 03:53:34;;;;;;;32.60;6.33;;;;;;;;;;5113112;28;20445;-70
2022/04/01 03:56:06;;;;;;;33.80;6.70;;;;;;;;;;5113811;28;20452;-70
2022/04/01 03:58:35;;;;;;;31.50;6.37;;;;;;;;;;5114061;28;20484;-69
2022/04/01 04:01:04;;;;;;;31.43;6.10;;;;;;;;;;5113732;28;20449;-70
2022/04/01 04:03:32;;;;;;;38.30;8.67;;;;;;;;;;5114097;28;20456;-69
2022/04/01 04:06:00;;;;;;;39.47;8.20;;;;;;;;;;5113847;28;20448;-70
2022/04/01 04:08:28;;;;;;;26.57;6.00;;;;;;;;;;5113822;28;20482;-70
2022/04/01 04:10:56;;;;;;;36.87;6.23;;;;;;;;;;5113776;28;20506;-69
2022/04/01 04:13:26;;;;;;;41.20;7.17;;;;;;;;;;5113653;28;20532;-70
2022/04/01 04:16:00;;;;;;;41.53;6.57;;;;;;;;;;5113728;28;20482;-69
2022/04/01 04:18:33;;;;;;;34.87;7.30;;;;;;;;;;5113756;28;20488;-69
2022/04/01 04:21:10;;;;;;;48.77;11.20;;;;;;;;;;5113740;28;20448;-70
2022/04/01 04:23:42;;;;;;;44.73;9.60;;;;;;;;;;5113570;28;20452;-69
2022/04/01 04:26:13;;;;;;;47.17;8.73;;;;;;;;;;5113584;28;20457;-69
2022/04/01 04:28:42;;;;;;;47.57;9.20;;;;;;;;;;5113667;28;20982;-69
2022/04/01 04:31:11;;;;;;;49.50;8.17;;;;;;;;;;5096639;28;20473;-69
2022/04/01 04:33:44;;;;;;;42.63;7.70;;;;;;;;;;5093987;28;20446;-69
2022/04/01 04:36:11;;;;;;;41.63;7.30;;;;;;;;;;5093737;28;20943;-70
2022/04/01 04:38:39;;;;;;;48.50;7.10;;;;;;;;;;5093849;28;20473;-70
2022/04/01 04:41:09;;;;;;;51.23;10.57;;;;;;;;;;5093420;28;20545;-70
2022/04/01 04:43:40;;;;;;;40.70;8.97;;;;;;;;;;5093874;28;20454;-70
2022/04/01 04:46:10;;;;;;;39.73;8.53;;;;;;;;;;5093665;28;20528;-69
2022/04/01 04:48:41;;;;;;;50.60;10.13;;;;;;;;;;5087086;28;20520;-69
2022/04/01 04:51:09;;;;;;;44.20;7.20;;;;;;;;;;5086714;28;20442;-70
2022/04/01 04:53:37;;;;;;;41.90;8.00;;;;;;;;;;5093498;28;20830;-70
2022/04/01 04:56:07;;;;;;;41.30;8.20;;;;;;;;;;5093643;28;20453;-70
2022/04/01 04:58:39;;;;;;;50.03;10.07;;;;;;;;;;5093312;28;20573;-70
2022/04/01 05:01:12;;;;;;;60.13;9.60;;;;;;;;;;5093088;28;20482;-70
2022/04/01 05:03:48;;;;;;;45.77;9.77;;;;;;;;;;5093063;28;20525;-70
2022/04/01 05:06:18;;;;;;;46.50;9.03;;;;;;;;;;5093681;28;20607;-70
2022/04/01 05:08:52;;;;;;;30.93;7.70;;;;;;;;;;5093116;28;20511;-69
2022/04/01 05:11:26;;;;;;;59.00;10.80;;;;;;;;;;5093140;28;20445;-70
2022/04/01 05:13:57;;;;;;;44.60;8.23;;;;;;;;;;5104277;28;20453;-69
2022/04/01 05:16:32;;;;;;;36.20;8.70;;;;;;;;;;5112793;28;20453;-70
2022/04/01 05:19:04;;;;;;;51.27;8.97;;;;;;;;;;5112689;28;20480;-70
2022/04/01 05:21:39;;;;;;;55.90;9.67;;;;;;;;;;5112679;28;20450;-70
2022/04/01 05:24:08;;;;;;;51.70;9.50;;;;;;;;;;5112267;28;20444;-70
2022/04/01 05:26:40;;;;;;;41.57;8.77;;;;;;;;;;5112650;28;20480;-70
2022/04/01 05:29:13;;;;;;;40.80;8.67;;;;;;;;;;5112355;28;20441;-70
2022/04/01 05:31:46;;;;;;;39.37;9.63;;;;;;;;;;5112602;28;20441;-70
2022/04/01 05:34:18;;;;;;;43.10;8.80;;;;;;;;;;5095405;28;20453;-70
2022/04/01 05:36:46;;;;;;;44.90;9.33;;;;;;;;;;5092753;28;20449;-70
2022/04/01 05:39:14;;;;;;;57.77;9.47;;;;;;;;;;5092377;28;20488;-70
2022/04/01 05:41:42;;;;;;;64.00;11.10;;;;;;;;;;5092468;28;20470;-70
2022/04/01 05:44:10;;;;;;;44.40;8.90;;;;;;;;;;5092869;28;20528;-70
2022/04/01 05:46:39;;;;;;;31.83;7.67;;;;;;;;;;5092590;28;20446;-70
2022/04/01 05:49:08;;;;;;;53.43;9.60;;;;;;;;;;5092222;28;20481;-70
2022/04/01 05:51:36;;;;;;;37.47;8.73;;;;;;;;;;5085530;28;20482;-70
2022/04/01 05:54:06;;;;;;;40.27;8.70;;;;;;;;;;5092560;28;20446;-70
2022/04/01 05:56:37;;;;;;;43.20;8.03;;;;;;;;;;5092789;28;20488;-70
2022/04/01 05:59:04;;;;;;;43.60;10.60;;;;;;;;;;5092151;28;20489;-70
2022/04/01 06:01:40;;;;;;;45.87;8.70;;;;;;;;;;5092258;28;20536;-70
2022/04/01 06:04:24;;;;;;;43.70;9.57;;;;;;;;;;5092733;28;20981;-70
2022/04/01 06:06:56;;;;;;;65.33;8.10;;;;;;;;;;5092457;28;20465;-70
2022/04/01 06:09:33;;;;;;;65.43;11.30;;;;;;;;;;5092192;28;20480;-70
2022/04/01 06:12:03;;;;;;;45.17;9.70;;;;;;;;;;5111747;28;20441;-70
2022/04/01 06:14:35;;;;;;;37.63;7.63;;;;;;;;;;5111622;28;20540;-70
2022/04/01 06:17:07;;;;;;;45.37;7.93;;;;;;;;;;5110848;28;21007;-70
2022/04/01 06:19:45;;;;;;;37.10;8.00;;;;;;;;;;5111717;28;20528;-70
2022/04/01 06:22:15;;;;;;;50.70;7.70;;;;;;;;;;5098546;28;20448;-69
2022/04/01 06:24:46;;;;;;;64.50;11.43;;;;;;;;;;5111499;28;20445;-70
2022/04/01 06:27:16;;;;;;;54.57;11.70;;;;;;;;;;5111355;28;20966;-70
2022/04/01 06:29:45;;;;;;;53.30;9.43;;;;;;;;;;5111676;28;20445;-70
2022/04/01 06:32:15;;;;;;;64.53;12.67;;;;;;;;;;5111701;28;20453;-70
2022/04/01 06:34:56;;;;;;;50.50;11.10;;;;;;;;;;5111933;28;20446;-70
2022/04/01 06:37:28;;;;;;;43.50;10.47;;;;;;;;;;5111219;28;20969;-70
2022/04/01 06:40:02;;;;;;;61.70;12.70;;;;;;;;;;5111187;28;20455;-69
2022/04/01 06:42:32;;;;;;;46.23;10.90;;;;;;;;;;5111383;28;20950;-70
2022/04/01 06:45:00;;;;;;;51.80;10.07;;;;;;;;;;5111676;28;20476;-70
2022/04/01 06:47:27;;;;;;;55.83;11.37;;;;;;;;;;5110900;28;20973;-68
2022/04/01 06:49:56;;;;;;;44.93;9.60;;;;;;;;;;5111647;28;20851;-70
2022/04/01 07:23:03;;;;;;;47.63;10.57;;;;;;;;;;5111166;28;20961;-70
2022/04/01 07:25:31;;;;;;;51.07;9.73;;;;;;;;;;5111148;28;20447;-70
2022/04/01 07:27:58;;;;;;;47.77;11.70;;;;;;;;;;5112897;28;20885;-70
2022/04/01 07:30:26;;;;;;;47.77;10.63;;;;;;;;;;5114986;28;20447;-70
2022/04/01 07:32:55;;;;;;;41.70;9.40;;;;;;;;;;5088202;28;20521;-69
2022/04/01 07:35:23;;;;;;;41.43;9.97;;;;;;;;;;5094933;28;20992;-70
2022/04/01 07:37:50;;;;;;;56.77;10.90;;;;;;;;;;5095125;28;20484;-70
2022/04/01 07:40:21;;;;;;;42.00;11.20;;;;;;;;;;5094697;28;21009;-70
2022/04/01 07:42:49;;;;;;;68.00;10.60;;;;;;;;;;5095039;28;20469;-70
2022/04/01 07:45:16;;;;;;;55.03;10.97;;;;;;;;;;5094903;28;20458;-70
2022/04/01 07:47:44;;;;;;;46.93;10.07;;;;;;;;;;5094786;28;20538;-70
2022/04/01 07:50:12;;;;;;;49.53;11.43;;;;;;;;;;5094963;28;20442;-70
2022/04/01 07:52:42;;;;;;;61.57;13.97;;;;;;;;;;5094761;28;20444;-70
2022/04/01 07:55:11;;;;;;;71.43;13.93;;;;;;;;;;5094713;28;20456;-69
2022/04/01 07:57:41;;;;;;;41.23;9.97;;;;;;;;;;5094789;28;20456;-70
2022/04/01 08:00:10;;;;;;;45.07;11.47;;;;;;;;;;5087597;28;20548;-70
2022/04/01 08:02:39;;;;;;;48.93;10.77;;;;;;;;;;5095220;28;20468;-70
2022/04/01 08:05:07;;;;;;;53.03;14.37;;;;;;;;;;5094422;28;20442;-69
2022/04/01 08:07:34;;;;;;;61.27;11.10;;;;;;;;;;5094616;28;20446;-70
2022/04/01 08:10:04;;;;;;;41.83;10.80;;;;;;;;;;5094569;28;20446;-70
2022/04/01 08:12:34;;;;;;;42.10;10.73;;;;;;;;;;5094363;28;20971;-70
2022/04/01 08:15:05;;;;;;;50.17;9.77;;;;;;;;;;5094807;28;20442;-70
2022/04/01 08:17:32;;;;;;;67.87;12.87;;;;;;;;;;5094146;28;20511;-69
2022/04/01 08:19:59;;;;;;;55.30;12.83;;;;;;;;;;5094411;28;20482;-69
2022/04/01 08:22:27;;;;;;;49.50;11.87;;;;;;;;;;5094258;28;20453;-70
2022/04/01 08:24:54;;;;;;;58.87;11.33;;;;;;;;;;5094002;28;20452;-70
2022/04/01 08:27:22;;;;;;;66.07;12.40;;;;;;;;;;5086639;28;20453;-70
2022/04/01 08:29:49;;;;;;;59.17;9.70;;;;;;;;;;5094344;28;20446;-70
2022/04/01 08:32:18;;;;;;;53.17;9.90;;;;;;;;;;5094333;28;20449;-70
2022/04/01 08:34:46;;;;;;;49.63;10.70;;;;;;;;;;5094040;28;20449;-70
2022/04/01 08:37:14;;;;;;;56.73;11.63;;;;;;;;;;5093686;28;20446;-70
2022/04/01 08:39:43;;;;;;;43.80;10.20;;;;;;;;;;5092966;28;20539;-70
2022/04/01 08:42:11;;;;;;;46.60;9.87;;;;;;;;;;5093354;28;20826;-70
2022/04/01 08:44:41;;;;;;;46.87;11.00;;;;;;;;;;5093738;28;20449;-70
2022/04/01 08:47:08;;;;;;;58.73;12.40;;;;;;;;;;5093529;28;20450;-70
2022/04/01 08:49:40;;;;;;;47.83;10.10;;;;;;;;;;5093718;28;20478;-70
2022/04/01 08:52:08;;;;;;;51.90;10.30;;;;;;;;;;5087436;28;20827;-70
2022/04/01 08:54:35;;;;;;;60.93;10.37;;;;;;;;;;5086633;28;20466;-70
2022/04/01 08:57:04;;;;;;;43.17;10.97;;;;;;;;;;5093694;28;20444;-70
2022/04/01 08:59:32;;;;;;;64.03;11.73;;;;;;;;;;5093510;28;20998;-70
2022/04/01 09:02:04;;;;;;;51.83;11.03;;;;;;;;;;5093606;28;20464;-70
2022/04/01 09:04:31;;;;;;;62.53;13.30;;;;;;;;;;5093480;28;20526;-69
2022/04/01 09:07:12;;;;;;;41.10;10.00;;;;;;;;;;5093346;28;20461;-70
2022/04/01 09:09:39;;;;;;;48.90;10.87;;;;;;;;;;5093743;28;20468;-71
2022/04/01 09:12:11;;;;;;;46.53;11.30;;;;;;;;;;5093181;28;20978;-70
2022/04/01 09:14:39;;;;;;;48.87;9.83;;;;;;;;;;5093258;28;20453;-70
2022/04/01 09:17:06;;;;;;;48.70;12.57;;;;;;;;;;5093027;28;20446;-71
2022/04/01 09:19:35;;;;;;;34.93;8.83;;;;;;;;;;5092941;28;20486;-70
2022/04/01 09:22:19;;;;;;;48.23;9.87;;;;;;;;;;5093000;28;20453;-71
2022/04/01 09:24:59;;;;;;;52.43;11.37;;;;;;;;;;5093074;28;20445;-71
2022/04/01 09:27:40;;;;;;;65.57;13.20;;;;;;;;;;5092940;28;20466;-71
2022/04/01 09:30:09;;;;;;;40.60;11.07;;;;;;;;;;5092866;28;20445;-72
2022/04/01 09:32:40;;;;;;;56.27;10.40;;;;;;;;;;5093142;28;20438;-71
2022/04/01 09:35:10;;;;;;;45.00;12.03;;;;;;;;;;5092813;28;20452;-70
2022/04/01 09:37:40;;;;;;;51.80;11.40;;;;;;;;;;5093093;28;20487;-71
2022/04/01 09:40:10;;;;;;;51.63;11.30;;;;;;;;;;5092145;28;20489;-70
2022/04/01 09:42:38;;;;;;;52.67;11.27;;;;;;;;;;5092838;28;20458;-71
2022/04/01 09:45:06;;;;;;;39.30;9.17;;;;;;;;;;5092385;28;20481;-71
2022/04/01 09:47:38;;;;;;;56.33;10.73;;;;;;;;;;5106949;28;20451;-70
2022/04/01 09:50:11;;;;;;;60.70;12.23;;;;;;;;;;5112012;28;20453;-73
2022/04/01 09:52:42;;;;;;;61.67;10.70;;;;;;;;;;5111924;28;20497;-71
2022/04/01 09:55:09;;;;;;;70.67;13.43;;;;;;;;;;5112119;28;20453;-71
2022/04/01 09:57:37;;;;;;;57.30;11.30;;;;;;;;;;5086126;28;20457;-71
2022/04/01 10:00:06;;;;;;;44.13;8.70;;;;;;;;;;5092535;28;20487;-71
2022/04/01 10:02:33;;;;;;;48.83;10.23;;;;;;;;;;5092504;28;20442;-71
2022/04/01 10:05:00;;;;;;;42.43;9.93;;;;;;;;;;5092386;28;20548;-71
2022/04/01 10:07:31;;;;;;;57.40;12.33;;;;;;;;;;5091963;28;20446;-71
2022/04/01 10:10:02;;;;;;;36.07;9.37;;;;;;;;;;5092646;28;20520;-71
2022/04/01 10:12:31;;;;;;;59.07;12.27;;;;;;;;;;5092367;28;20452;-70
2022/04/01 10:15:00;;;;;;;49.77;9.57;;;;;;;;;;5092315;28;20451;-71
2022/04/01 10:17:29;;;;;;;64.57;12.10;;;;;;;;;;5092077;28;20523;-71
2022/04/01 10:19:58;;;;;;;42.47;10.70;;;;;;;;;;5091954;28;20555;-70
2022/04/01 10:22:27;;;;;;;62.23;12.47;;;;;;;;;;5092583;28;20871;-72
2022/04/01 10:24:59;;;;;;;49.13;9.43;;;;;;;;;;5092059;28;20449;-71
2022/04/01 10:27:34;;;;;;;41.47;9.90;;;;;;;;;;5085698;28;20450;-71
2022/04/01 10:30:01;;;;;;;40.10;9.40;;;;;;;;;;5092078;28;20458;-71
2022/04/01 10:32:30;;;;;;;57.20;11.10;;;;;;;;;;5111488;28;20448;-72
2022/04/01 10:34:59;;;;;;;61.37;13.37;;;;;;;;;;5111559;28;20955;-72
2022/04/01 10:37:27;;;;;;;55.80;9.33;;;;;;;;;;5111257;28;20947;-71
2022/04/01 10:39:55;;;;;;;48.00;9.13;;;;;;;;;;5111043;28;20485;-71
2022/04/01 10:42:26;;;;;;;42.43;7.93;;;;;;;;;;5111317;28;20453;-71
2022/04/01 10:44:56;;;;;;;43.23;9.00;;;;;;;;;;5111394;28;20445;-71
2022/04/01 10:47:24;;;;;;;42.17;10.53;;;;;;;;;;5110835;28;20976;-71
2022/04/01 10:52:37;;;;;;;55.20;11.27;;;;;;;;;;5108063;28;20435;-71
2022/04/01 10:55:09;;;;;;;50.23;9.70;;;;;;;;;;5091895;28;20459;-71
2022/04/01 10:57:40;;;;;;;51.40;9.57;;;;;;;;;;5091881;28;20465;-71
2022/04/01 11:00:14;;;;;;;47.93;9.20;;;;;;;;;;5091741;28;21029;-71
2022/04/01 11:02:41;;;;;;;45.10;9.80;;;;;;;;;;5093596;28;20531;-71
2022/04/01 11:05:23;;;;;;;67.57;12.03;;;;;;;;;;5095535;28;20447;-70
2022/04/01 11:08:06;;;;;;;51.23;9.60;;;;;;;;;;5096237;28;20452;-73
2022/04/01 11:10:34;;;;;;;48.83;9.77;;;;;;;;;;5115182;28;20547;-73
2022/04/01 11:13:01;;;;;;;44.30;9.50;;;;;;;;;;5115209;28;20472;-72
2022/04/01 11:15:31;;;;;;;42.50;8.93;;;;;;;;;;5114869;28;20454;-72
2022/04/01 11:18:05;;;;;;;43.83;9.60;;;;;;;;;;5114813;28;20472;-72
2022/04/01 11:20:37;;;;;;;42.87;10.27;;;;;;;;;;5114786;28;21093;-72
2022/04/01 11:23:12;;;;;;;49.67;10.20;;;;;;;;;;5114948;28;20471;-71
2022/04/01 11:25:53;;;;;;;59.70;10.03;;;;;;;;;;5114820;28;20943;-70
2022/04/01 11:28:21;;;;;;;55.83;11.10;;;;;;;;;;5114770;28;20532;-71
2022/04/01 11:31:07;;;;;;;60.80;11.97;;;;;;;;;;5114563;28;20437;-71
2022/04/01 11:33:35;;;;;;;44.63;8.70;;;;;;;;;;5114722;28;20947;-71
2022/04/01 11:36:03;;;;;;;43.63;9.20;;;;;;;;;;5114541;28;20532;-71
2022/04/01 11:38:30;;;;;;;45.63;8.27;;;;;;;;;;5114489;28;21006;-71
2022/04/01 11:41:00;;;;;;;40.43;8.10;;;;;;;;;;5113984;28;20559;-70
2022/04/01 11:43:28;;;;;;;35.60;7.90;;;;;;;;;;5114455;28;20448;-72
2022/04/01 11:45:58;;;;;;;46.90;7.70;;;;;;;;;;5114586;28;20443;-71
2022/04/01 11:48:29;;;;;;;51.90;9.63;;;;;;;;;;5114703;28;20544;-71
2022/04/01 11:50:57;;;;;;;46.33;7.77;;;;;;;;;;5114539;28;20434;-71
2022/04/01 11:53:26;;;;;;;49.33;10.87;;;;;;;;;;5114167;28;20441;-71
2022/04/01 11:55:54;;;;;;;45.20;9.20;;;;;;;;;;5087876;28;20437;-71
2022/04/01 11:58:22;;;;;;;44.13;8.30;;;;;;;;;;5095122;28;20536;-71
2022/04/01 12:00:49;;;;;;;43.67;8.27;;;;;;;;;;5094706;28;20842;-72
2022/04/01 12:03:19;;;;;;;51.70;10.00;;;;;;;;;;5094403;28;20870;-71
2022/04/01 12:05:52;;;;;;;42.97;10.30;;;;;;;;;;5094513;28;20446;-71
2022/04/01 12:11:07;;;;;;;49.70;8.17;;;;;;;;;;5094376;28;20930;-73
2022/04/01 12:13:34;;;;;;;49.60;9.30;;;;;;;;;;5093864;28;20442;-72
2022/04/01 12:16:02;;;;;;;31.47;7.20;;;;;;;;;;5094269;28;20456;-73
2022/04/01 12:18:31;;;;;;;57.47;8.67;;;;;;;;;;5094210;28;20454;-74
2022/04/01 12:21:01;;;;;;;39.80;9.03;;;;;;;;;;5094224;28;20483;-73
2022/04/01 12:23:32;;;;;;;44.93;9.90;;;;;;;;;;5094136;28;20477;-71
2022/04/01 12:26:00;;;;;;;45.37;10.27;;;;;;;;;;5094145;28;20450;-70
2022/04/01 12:28:28;;;;;;;41.27;9.90;;;;;;;;;;5094090;28;20449;-71
2022/04/01 12:30:56;;;;;;;48.17;8.90;;;;;;;;;;5093915;28;20455;-71
2022/04/01 12:33:25;;;;;;;48.67;9.17;;;;;;;;;;5087488;28;20514;-71
2022/04/01 12:36:02;;;;;;;37.23;7.80;;;;;;;;;;5093889;28;20486;-71
2022/04/01 12:38:30;;;;;;;34.30;8.40;;;;;;;;;;5093773;28;20972;-71
2022/04/01 12:40:58;;;;;;;44.93;10.87;;;;;;;;;;5093349;28;20508;-71
2022/04/01 12:43:46;;;;;;;40.43;8.80;;;;;;;;;;5093519;28;20539;-70
2022/04/01 12:46:15;;;;;;;48.40;9.20;;;;;;;;;;5089041;28;20449;-71
2022/04/01 12:48:44;;;;;;;38.77;7.20;;;;;;;;;;5087073;28;20483;-71
2022/04/01 12:51:19;;;;;;;53.00;10.70;;;;;;;;;;5093376;28;20463;-71
2022/04/01 12:53:56;;;;;;;35.53;8.40;;;;;;;;;;5093687;28;20472;-71
2022/04/01 12:56:24;;;;;;;46.37;7.13;;;;;;;;;;5093512;28;20435;-70
2022/04/01 12:58:53;;;;;;;51.60;8.83;;;;;;;;;;5113090;28;20441;-71
2022/04/01 13:01:21;;;;;;;48.00;10.70;;;;;;;;;;5112772;28;20477;-70
2022/04/01 13:03:49;;;;;;;41.53;8.57;;;;;;;;;;5112786;28;20455;-71
2022/04/01 13:06:18;;;;;;;42.10;7.30;;;;;;;;;;5112782;28;20452;-70
2022/04/01 13:08:46;;;;;;;53.87;9.90;;;;;;;;;;5112682;28;20460;-71
2022/04/01 13:11:14;;;;;;;52.87;10.43;;;;;;;;;;5112650;28;21032;-70
2022/04/01 13:13:42;;;;;;;30.97;6.33;;;;;;;;;;5097016;28;20468;-70
2022/04/01 13:16:10;;;;;;;49.20;9.50;;;;;;;;;;5093317;28;20989;-70
2022/04/01 13:18:37;;;;;;;48.03;9.67;;;;;;;;;;5093006;28;20506;-70
2022/04/01 13:21:05;;;;;;;41.57;8.43;;;;;;;;;;5092547;28;20483;-70
2022/04/01 13:23:35;;;;;;;38.40;7.93;;;;;;;;;;5112857;28;20439;-70
2022/04/01 13:26:03;;;;;;;39.53;8.80;;;;;;;;;;5112563;28;20490;-70
2022/04/01 13:28:30;;;;;;;50.47;8.63;;;;;;;;;;5112613;28;20445;-70
2022/04/01 13:30:58;;;;;;;42.67;7.60;;;;;;;;;;5112306;28;20451;-71
2022/04/01 13:33:25;;;;;;;42.73;10.70;;;;;;;;;;5112209;28;20448;-70
2022/04/01 13:35:53;;;;;;;54.13;9.47;;;;;;;;;;5112152;28;20445;-70
2022/04/01 13:38:20;;;;;;;34.33;7.43;;;;;;;;;;5112146;28;20481;-71
2022/04/01 13:40:49;;;;;;;40.13;8.97;;;;;;;;;;5111741;28;21056;-70
2022/04/01 13:43:17;;;;;;;45.97;9.83;;;;;;;;;;5111801;28;20834;-70
2022/04/01 13:45:44;;;;;;;49.17;9.50;;;;;;;;;;5112781;28;20456;-72
2022/04/01 13:48:12;;;;;;;46.00;7.10;;;;;;;;;;5111913;28;20485;-71
2022/04/01 13:50:39;;;;;;;44.97;8.23;;;;;;;;;;5112226;28;20835;-71
2022/04/01 13:53:08;;;;;;;44.60;10.67;;;;;;;;;;5111832;28;20437;-71
2022/04/01 13:55:35;;;;;;;43.50;9.07;;;;;;;;;;5112070;28;20516;-71
2022/04/01 13:58:05;;;;;;;46.83;9.60;;;;;;;;;;5112127;28;20446;-71
2022/04/01 14:00:33;;;;;;;45.13;8.80;;;;;;;;;;5111841;28;20860;-74
2022/04/01 14:03:00;;;;;;;54.83;11.10;;;;;;;;;;5111881;28;20477;-71
2022/04/01 14:05:27;;;;;;;70.03;12.87;;;;;;;;;;5111854;28;20517;-71
2022/04/01 14:07:56;;;;;;;57.93;10.57;;;;;;;;;;5112031;28;20459;-71
2022/04/01 14:10:23;;;;;;;51.23;9.87;;;;;;;;;;5111924;28;20449;-71
2022/04/01 14:12:51;;;;;;;51.50;9.87;;;;;;;;;;5112221;28;20460;-71
2022/04/01 14:15:21;;;;;;;56.87;9.37;;;;;;;;;;5111474;28;20480;-71
2022/04/01 14:17:48;;;;;;;44.03;7.00;;;;;;;;;;5111850;28;20453;-71
2022/04/01 14:20:17;;;;;;;51.47;10.43;;;;;;;;;;5111780;28;20546;-70
2022/04/01 14:22:44;;;;;;;45.53;6.80;;;;;;;;;;5111714;28;20506;-71
2022/04/01 14:25:11;;;;;;;53.00;9.80;;;;;;;;;;5109454;28;20453;-71
2022/04/01 14:27:39;;;;;;;61.57;10.30;;;;;;;;;;5092206;28;20477;-71
2022/04/01 14:30:19;;;;;;;42.70;8.83;;;;;;;;;;5092242;28;20950;-71
2022/04/01 14:32:49;;;;;;;49.03;8.50;;;;;;;;;;5092211;28;20448;-71
2022/04/01 14:35:17;;;;;;;55.63;10.20;;;;;;;;;;5091770;28;20455;-71
2022/04/01 14:37:45;;;;;;;49.70;9.27;;;;;;;;;;5093699;28;20447;-71
2022/04/01 14:40:12;;;;;;;55.40;9.13;;;;;;;;;;5095437;28;20493;-70
2022/04/01 14:42:40;;;;;;;43.60;8.77;;;;;;;;;;5096323;28;20831;-71
2022/04/01 14:45:08;;;;;;;44.93;7.60;;;;;;;;;;5096013;28;20449;-71
2022/04/01 14:47:36;;;;;;;45.77;8.27;;;;;;;;;;5096230;28;20453;-70
2022/04/01 14:50:06;;;;;;;41.17;7.60;;;;;;;;;;5096222;28;20452;-70
2022/04/01 14:52:33;;;;;;;44.87;8.10;;;;;;;;;;5096024;28;20454;-71
2022/04/01 14:55:01;;;;;;;42.00;7.30;;;;;;;;;;5095912;28;21032;-71
2022/04/01 14:57:28;;;;;;;48.13;8.40;;;;;;;;;;5096162;28;20446;-70
2022/04/01 14:59:56;;;;;;;36.40;7.53;;;;;;;;;;5095669;28;20460;-71
2022/04/01 15:02:24;;;;;;;47.33;8.63;;;;;;;;;;5095839;28;20529;-72
2022/04/01 15:04:54;;;;;;;30.87;7.70;;;;;;;;;;5115415;28;20523;-71
2022/04/01 15:07:23;;;;;;;44.53;9.50;;;;;;;;;;5114987;28;20439;-71
2022/04/01 15:09:50;;;;;;;52.40;7.60;;;;;;;;;;5115364;28;20453;-71
2022/04/01 15:12:18;;;;;;;43.57;7.03;;;;;;;;;;5111005;28;20452;-71
2022/04/01 15:14:45;;;;;;;42.23;9.27;;;;;;;;;;5095477;28;20951;-71
2022/04/01 15:17:16;;;;;;;49.47;8.93;;;;;;;;;;5095412;28;20456;-71